Time;durP1;ratioP1;P1;durP2;ratioP2;P2;SDS_P1;SDS_P2;PMS_P1;PMS_P2;Temp;Humidity;BMP_temperature;BMP_pressure;BME280_temperature;BME280_humidity;BME280_pressure;Samples;Min_cycle;Max_cycle;Signal;HPM_P1;HPM_P2
2023/01/15 00:01:22;;;;;;;;;62.50;47.75;;;;;7.98;72.11;101454.28;146615;624;47014;-67
2023/01/15 00:04:18;;;;;;;;;61.25;46.75;;;;;8.02;71.92;101449.44;146620;592;46010;-68
2023/01/15 00:07:26;;;;;;;;;59.50;44.75;;;;;8.05;71.74;101439.34;146616;627;46016;-66
2023/01/15 00:10:23;;;;;;;;;56.75;43.75;;;;;8.10;72.04;101440.59;146615;588;46010;-68
2023/01/15 00:13:27;;;;;;;;;59.25;45.00;;;;;8.08;72.17;101443.84;146616;667;46014;-65
2023/01/15 00:16:46;;;;;;;;;;;;;;;;;;;;;
2023/01/15 00:20:10;;;;;;;;;42.25;37.00;;;;;7.98;71.46;101450.03;146615;606;46012;-66
2023/01/15 00:27:37;;;;;;;;;55.00;40.50;;;;;7.95;71.98;101448.91;146622;652;46020;-67
2023/01/15 00:29:35;;;;;;;;;50.75;39.00;;;;;7.90;71.57;101442.50;146618;578;46013;-68
2023/01/15 00:32:34;;;;;;;;;47.00;38.00;;;;;7.86;71.24;101444.84;146614;577;46016;-67
2023/01/15 00:35:32;;;;;;;;;50.50;39.75;;;;;7.81;71.68;101443.59;146620;588;46010;-66
2023/01/15 00:38:45;;;;;;;;;54.25;40.25;;;;;7.74;71.39;101436.19;146616;670;46017;-66
2023/01/15 00:41:47;;;;;;;;;53.00;42.25;;;;;7.66;71.68;101445.03;146615;577;46031;-66
2023/01/15 00:44:53;;;;;;;;;;;;;;;;;;;;;
2023/01/15 00:47:51;;;;;;;;;57.00;42.75;;;;;7.61;72.32;101446.41;146636;571;45010;-65
2023/01/15 00:50:58;;;;;;;;;51.50;41.75;;;;;7.61;72.00;101436.97;146633;576;45012;-66
2023/01/15 00:53:56;;;;;;;;;42.25;34.75;;;;;7.67;73.97;101433.97;146635;564;45021;-65
2023/01/15 00:56:51;;;;;;;;;39.75;32.00;;;;;7.75;73.46;101430.25;146635;573;45016;-65
2023/01/15 00:59:48;;;;;;;;;32.75;28.25;;;;;7.85;72.69;101435.31;146634;617;45021;-65
2023/01/15 01:02:55;;;;;;;;;33.75;26.50;;;;;7.94;72.21;101432.47;146631;609;45034;-66
2023/01/15 01:06:12;;;;;;;;;42.00;32.75;;;;;8.03;71.73;101427.97;146635;569;45020;-64
2023/01/15 01:09:25;;;;;;;;;38.50;31.25;;;;;8.09;71.44;101431.00;146630;656;45918;-68
2023/01/15 01:12:25;;;;;;;;;40.75;33.00;;;;;8.15;70.75;101427.09;146626;803;45020;-68
2023/01/15 01:15:21;;;;;;;;;38.00;32.25;;;;;8.16;71.20;101434.97;146635;667;45014;-68
2023/01/15 01:18:14;;;;;;;;;44.75;33.25;;;;;8.13;70.42;101433.81;146635;614;45020;-65
2023/01/15 01:21:22;;;;;;;;;40.75;33.25;;;;;5.07;69.55;100898.47;146632;614;45016;-66
2023/01/15 01:24:28;;;;;;;;;35.00;31.75;;;;;8.09;70.28;101448.19;146635;579;45010;-66
2023/01/15 01:27:32;;;;;;;;;32.75;28.25;;;;;8.12;70.11;101437.19;146632;593;46012;-66
2023/01/15 01:30:49;;;;;;;;;39.00;29.25;;;;;5.21;68.81;100912.38;146636;670;45021;-68
2023/01/15 01:33:55;;;;;;;;;36.75;30.50;;;;;8.24;69.49;101433.81;146635;604;44032;-67
2023/01/15 01:36:54;;;;;;;;;33.25;29.25;;;;;8.27;69.26;101430.56;146635;581;45021;-68
2023/01/15 01:39:58;;;;;;;;;32.25;29.25;;;;;8.29;69.18;101429.00;146631;625;45012;-68
2023/01/15 01:43:15;;;;;;;;;44.75;32.75;;;;;8.32;68.55;101426.63;146621;735;46010;-68
2023/01/15 01:46:18;;;;;;;;;43.25;31.00;;;;;8.37;68.50;101429.53;146617;564;46017;-67
2023/01/15 01:49:16;;;;;;;;;35.00;30.25;;;;;8.34;68.89;101430.19;146621;565;46020;-68
2023/01/15 01:52:23;;;;;;;;;42.75;34.50;;;;;8.25;68.45;101426.94;146615;569;46918;-67
2023/01/15 01:55:33;;;;;;;;;37.00;31.25;;;;;8.19;69.47;101432.56;146617;572;46913;-68
2023/01/15 01:58:39;;;;;;;;;40.00;34.25;;;;;6.11;68.63;101089.78;146612;599;46012;-68
2023/01/15 02:01:31;;;;;;;;;34.00;27.00;;;;;8.02;69.28;101438.22;146621;602;46020;-68
2023/01/15 02:04:29;;;;;;;;;37.25;31.75;;;;;7.98;69.40;101428.47;146613;594;46014;-65
2023/01/15 02:07:30;;;;;;;;;36.00;29.25;;;;;7.93;70.18;101430.69;146621;602;46020;-66
2023/01/15 02:10:28;;;;;;;;;33.25;29.50;;;;;7.81;69.90;101425.53;146616;569;46012;-70
2023/01/15 02:13:59;;;;;;;;;28.75;26.00;;;;;4.87;69.44;100922.66;146615;622;46021;-68
2023/01/15 02:17:36;;;;;;;;;31.75;29.50;;;;;7.74;70.13;101432.72;146612;580;46016;-68
2023/01/15 02:20:53;;;;;;;;;37.50;29.75;;;;;7.69;70.28;101419.47;146622;575;46020;-69
2023/01/15 02:24:20;;;;;;;;;42.75;32.25;;;;;4.75;69.64;100901.16;146614;583;46016;-67
2023/01/15 02:27:35;;;;;;;;;33.50;27.50;;;;;7.67;70.63;101425.31;146620;613;46020;-67
2023/01/15 02:30:57;;;;;;;;;34.75;25.00;;;;;4.55;69.57;100884.22;146618;599;46016;-69
2023/01/15 02:34:21;;;;;;;;;47.75;37.00;;;;;7.60;71.08;101418.78;146623;610;46020;-67
2023/01/15 02:37:27;;;;;;;;;40.50;32.00;;;;;7.59;70.68;101422.16;146619;564;46017;-67
2023/01/15 02:40:30;;;;;;;;;36.25;30.50;;;;;7.61;70.67;101407.69;146621;636;46020;-68
2023/01/15 02:43:38;;;;;;;;;44.00;33.00;;;;;7.64;70.25;101415.66;146615;612;46029;-68
2023/01/15 02:46:43;;;;;;;;;36.75;31.50;;;;;7.64;71.31;101410.50;146606;579;46019;-67
2023/01/15 02:49:37;;;;;;;;;27.50;25.25;;;;;7.66;71.06;101405.44;146611;579;46012;-67
2023/01/15 02:52:41;;;;;;;;;29.50;26.00;;;;;7.70;70.33;101405.78;146613;597;46010;-69
2023/01/15 02:55:46;;;;;;;;;23.25;23.00;;;;;7.77;71.09;101401.97;146612;575;46026;-68
2023/01/15 02:58:52;;;;;;;;;40.75;30.75;;;;;7.85;70.62;101393.09;146615;570;46010;-69
2023/01/15 03:01:50;;;;;;;;;34.25;30.00;;;;;7.90;69.74;101391.75;146610;570;46016;-64
2023/01/15 03:05:31;;;;;;;;;33.25;27.25;;;;;5.05;68.58;100879.50;146613;649;46020;-64
2023/01/15 03:08:27;;;;;;;;;36.00;29.25;;;;;7.99;69.37;101384.66;146609;578;46016;-64
2023/01/15 03:11:38;;;;;;;;;35.25;31.00;;;;;7.99;68.80;101389.81;146609;633;46010;-65
2023/01/15 03:15:06;;;;;;;;;39.75;31.00;;;;;7.98;68.72;101388.03;146609;618;46013;-64
2023/01/15 03:18:04;;;;;;;;;36.75;30.50;;;;;7.93;68.51;101380.75;146608;576;45022;-68
2023/01/15 03:21:02;;;;;;;;;36.75;31.50;;;;;7.88;69.01;101388.12;146609;603;46918;-67
2023/01/15 03:24:07;;;;;;;;;38.50;30.50;;;;;7.80;69.77;101386.69;146613;620;46010;-66
2023/01/15 03:27:07;;;;;;;;;38.25;31.75;;;;;7.72;69.52;101393.88;146612;618;46016;-66
2023/01/15 03:30:09;;;;;;;;;36.25;30.75;;;;;7.69;69.65;101388.47;146613;564;46020;-67
2023/01/15 03:33:14;;;;;;;;;35.00;28.75;;;;;7.72;69.83;101392.97;146612;563;46012;-69
2023/01/15 03:36:18;;;;;;;;;31.25;26.00;;;;;7.65;69.87;101396.78;146612;668;46021;-66
2023/01/15 03:39:10;;;;;;;;;35.25;30.25;;;;;7.52;69.73;101397.56;146610;622;46014;-65
2023/01/15 03:42:58;;;;;;;;;;;;;;;;;;;;;
2023/01/15 03:46:11;;;;;;;;;;;;;;;;;;;;;
2023/01/15 03:49:59;;;;;;;;;28.00;26.50;;;;;4.37;68.79;100878.53;146607;563;46012;-68
2023/01/15 03:53:27;;;;;;;;;33.00;30.00;;;;;7.37;69.31;101407.66;146613;597;46012;-67
2023/01/15 03:56:39;;;;;;;;;31.75;27.75;;;;;7.37;68.93;101406.75;146613;619;46012;-66
2023/01/15 03:59:51;;;;;;;;;30.75;24.50;;;;;7.38;68.96;101413.69;146614;647;46028;-70
2023/01/15 04:02:53;;;;;;;;;31.75;26.50;;;;;7.36;68.58;101429.09;146613;564;46010;-71
2023/01/15 04:05:53;;;;;;;;;29.75;25.00;;;;;7.33;68.65;101428.84;146608;610;46017;-66
2023/01/15 04:09:00;;;;;;;;;;;;;;;;;;;;;
2023/01/15 04:12:11;;;;;;;;;;;;;;;;;;;;;
2023/01/15 04:15:25;;;;;;;;;46.50;35.50;;;;;7.11;69.63;101431.50;146610;638;47010;-68
2023/01/15 04:18:18;;;;;;;;;35.00;30.75;;;;;7.08;69.37;101436.41;146608;632;47012;-68
2023/01/15 04:21:25;;;;;;;;;39.00;31.75;;;;;7.08;69.56;101438.09;146606;649;46021;-68
2023/01/15 04:24:27;;;;;;;;;36.50;32.25;;;;;7.05;69.63;101435.28;146607;609;46012;-68
2023/01/15 04:27:26;;;;;;;;;40.50;32.00;;;;;7.02;69.97;101435.94;146612;734;46020;-69
2023/01/15 04:30:18;;;;;;;;;36.00;28.75;;;;;7.03;70.10;101437.72;146609;628;46012;-68
2023/01/15 04:33:19;;;;;;;;;31.75;27.75;;;;;7.02;69.68;101440.22;146612;625;46020;-68
2023/01/15 04:36:20;;;;;;;;;25.00;24.00;;;;;6.98;69.37;101443.31;146609;694;46014;-69
2023/01/15 04:39:14;;;;;;;;;36.50;29.00;;;;;6.93;69.73;101445.56;146609;590;46020;-69
2023/01/15 04:45:35;;;;;;;;;31.00;25.00;;;;;6.80;69.55;101459.16;146609;601;46012;-67
2023/01/15 04:48:34;;;;;;;;;28.75;27.75;;;;;6.73;69.50;101462.06;146610;780;46012;-67
2023/01/15 04:51:32;;;;;;;;;20.25;16.00;;;;;6.70;69.49;101461.81;146607;642;46021;-67
2023/01/15 04:54:30;;;;;;;;;37.25;30.50;;;;;6.68;70.02;101450.47;146609;574;46918;-67
2023/01/15 04:57:38;;;;;;;;;35.00;30.25;;;;;6.68;70.09;101461.69;146613;628;46020;-67
2023/01/15 05:00:31;;;;;;;;;33.25;29.25;;;;;6.74;69.86;101462.94;146610;619;46012;-67
2023/01/15 05:03:23;;;;;;;;;33.75;30.75;;;;;6.72;70.07;101462.81;146613;728;46010;-67
2023/01/15 05:06:20;;;;;;;;;39.25;32.00;;;;;6.63;70.57;101455.25;146612;594;46017;-67
2023/01/15 05:09:18;;;;;;;;;43.50;33.25;;;;;6.63;71.23;101459.50;146614;573;46020;-66
2023/01/15 05:12:29;;;;;;;;;;;;;;;;;;;;;
2023/01/15 05:15:49;;;;;;;;;;;;;;;;;;;;;
2023/01/15 05:18:51;;;;;;;;;42.00;33.75;;;;;6.79;71.42;101465.13;146608;763;46024;-67
2023/01/15 05:21:50;;;;;;;;;42.75;32.25;;;;;6.86;72.00;101458.75;146606;628;46010;-68
2023/01/15 05:24:55;;;;;;;;;36.75;32.50;;;;;6.87;71.76;101466.59;146607;576;46012;-67
2023/01/15 05:27:54;;;;;;;;;32.75;30.00;;;;;6.93;71.40;101464.50;146612;632;46021;-67
2023/01/15 05:31:05;;;;;;;;;35.00;29.25;;;;;7.00;70.59;101464.97;146608;569;46012;-67
2023/01/15 05:34:01;;;;;;;;;38.75;32.25;;;;;7.02;71.01;101474.63;146608;575;47020;-67
2023/01/15 05:36:53;;;;;;;;;39.00;27.75;;;;;6.97;71.27;101473.34;146610;579;46919;-68
2023/01/15 05:39:48;;;;;;;;;39.75;32.75;;;;;6.92;71.00;101478.16;146615;648;46010;-68
2023/01/15 05:42:42;;;;;;;;;36.50;31.75;;;;;6.93;70.80;101476.50;146610;584;46021;-67
2023/01/15 05:45:39;;;;;;;;;43.00;36.25;;;;;6.93;71.09;101479.06;146613;614;46020;-67
2023/01/15 05:48:48;;;;;;;;;37.25;31.50;;;;;6.89;70.38;101474.47;146610;610;46012;-70
2023/01/15 05:51:52;;;;;;;;;45.00;31.25;;;;;6.77;71.12;101476.97;146606;563;46020;-70
2023/01/15 05:54:44;;;;;;;;;47.25;34.25;;;;;6.66;71.19;101478.69;146610;591;46012;-70
2023/01/15 05:57:48;;;;;;;;;;;;;;;;;;;;;
2023/01/15 06:00:58;;;;;;;;;;;;;;;;;;;;;
2023/01/15 06:04:10;;;;;;;;;36.25;33.25;;;;;6.78;71.38;101485.59;146614;608;46011;-68
2023/01/15 06:07:04;;;;;;;;;39.25;31.75;;;;;6.80;71.81;101484.06;146612;563;46012;-68
2023/01/15 06:10:01;;;;;;;;;37.00;33.00;;;;;6.79;72.23;101489.97;146610;615;46020;-68
2023/01/15 06:12:59;;;;;;;;;33.50;30.00;;;;;6.78;72.22;101483.03;146606;651;46012;-69
2023/01/15 06:15:57;;;;;;;;;36.25;30.75;;;;;6.77;72.60;101488.97;146613;581;46010;-65
2023/01/15 06:18:56;;;;;;;;;48.00;35.00;;;;;6.73;73.55;101485.25;146610;600;47013;-66
2023/01/15 06:21:48;;;;;;;;;31.25;27.00;;;;;6.75;72.84;101482.78;146607;643;46020;-67
2023/01/15 06:24:47;;;;;;;;;34.50;28.00;;;;;6.75;73.14;101488.84;146607;572;46016;-69
2023/01/15 06:27:48;;;;;;;;;28.00;25.25;;;;;6.77;73.38;101495.00;146613;626;46021;-68
2023/01/15 06:30:48;;;;;;;;;32.75;29.25;;;;;6.82;72.58;101496.28;146606;671;46016;-66
2023/01/15 06:33:56;;;;;;;;;;;;;;;;;;;;;
2023/01/15 06:36:51;;;;;;;;;31.75;28.25;;;;;7.06;72.68;101499.84;146612;567;46016;-67
2023/01/15 06:39:45;;;;;;;;;30.25;27.75;;;;;7.21;72.11;101504.41;146613;576;46010;-67
2023/01/15 06:49:20;;;;;;;;;37.50;28.75;;;;;7.61;71.83;101508.34;146606;582;47012;-66
2023/01/15 06:52:22;;;;;;;;;36.00;30.25;;;;;7.72;71.68;101514.31;146607;577;46020;-66
2023/01/15 06:55:29;;;;;;;;;43.50;34.25;;;;;7.75;71.24;101518.00;146610;614;46016;-67
2023/01/15 06:58:45;;;;;;;;;60.25;49.00;;;;;5.21;70.84;101083.75;146614;718;46020;-66
2023/01/15 07:01:40;;;;;;;;;64.50;49.75;;;;;7.73;71.10;101529.94;146610;614;46012;-66
2023/01/15 07:04:48;;;;;;;;;51.50;38.75;;;;;7.77;71.07;101531.94;146613;657;46021;-67
2023/01/15 07:07:43;;;;;;;;;47.75;39.00;;;;;7.81;71.43;101541.72;146609;566;46016;-67
2023/01/15 07:10:40;;;;;;;;;48.00;36.25;;;;;7.84;72.26;101534.19;146612;612;46020;-67
2023/01/15 07:13:37;;;;;;;;;43.00;35.00;;;;;7.85;71.48;101548.03;146610;616;46016;-68
2023/01/15 07:16:41;;;;;;;;;54.25;40.25;;;;;7.86;71.86;101553.28;146612;593;46020;-68
2023/01/15 07:19:41;;;;;;;;;57.25;46.25;;;;;7.89;71.72;101550.06;146609;622;46013;-67
2023/01/15 07:22:42;;;;;;;;;57.50;46.25;;;;;7.94;71.82;101550.38;146607;571;46020;-67
2023/01/15 07:25:34;;;;;;;;;51.00;42.00;;;;;7.99;72.08;101552.53;146611;623;46017;-67
2023/01/15 07:28:32;;;;;;;;;57.25;44.00;;;;;8.05;72.20;101547.81;146612;579;46031;-68
2023/01/15 07:31:27;;;;;;;;;49.50;38.75;;;;;8.14;71.49;101547.59;146610;745;46033;-68
2023/01/15 07:34:30;;;;;;;;;56.75;45.25;;;;;8.27;70.89;101552.00;146616;600;46010;-67
2023/01/15 07:37:22;;;;;;;;;63.25;47.50;;;;;8.40;70.36;101552.13;146609;596;46012;-68
2023/01/15 07:40:28;;;;;;;;;57.25;44.50;;;;;8.56;70.08;101547.28;146611;626;46023;-68
2023/01/15 07:49:50;;;;;;;;;59.50;45.00;;;;;9.01;68.57;101564.31;146610;712;46016;-67
2023/01/15 07:52:46;;;;;;;;;46.75;39.75;;;;;9.12;67.88;101569.31;146600;589;48010;-69
2023/01/15 07:55:49;;;;;;;;;53.75;42.75;;;;;9.21;67.59;101562.22;146610;606;46017;-67
2023/01/15 07:58:59;;;;;;;;;65.00;50.00;;;;;6.40;66.52;101051.63;146610;608;46020;-65
2023/01/15 08:01:56;;;;;;;;;63.75;48.75;;;;;9.34;66.66;101562.25;146604;689;47012;-69
2023/01/15 08:04:59;;;;;;;;;61.75;47.25;;;;;7.66;65.81;101278.97;146612;612;46020;-68
2023/01/15 08:08:00;;;;;;;;;56.50;44.50;;;;;9.44;65.84;101569.00;146608;580;46016;-69
2023/01/15 08:18:08;;;;;;;;;;;;;;;;;;;;;
2023/01/15 08:21:18;;;;;;;;;50.75;41.50;;;;;9.73;66.08;101576.16;146611;613;46016;-69
2023/01/15 08:24:25;;;;;;;;;66.25;49.75;;;;;9.82;65.39;101569.03;146609;588;46010;-67
2023/01/15 08:27:22;;;;;;;;;62.50;46.75;;;;;9.86;65.35;101568.44;146610;569;46017;-68
2023/01/15 08:30:22;;;;;;;;;61.50;47.25;;;;;9.93;65.51;101573.22;146613;598;46010;-69
2023/01/15 08:33:30;;;;;;;;;69.75;51.75;;;;;6.92;64.77;101031.28;146610;564;46017;-69
2023/01/15 08:36:36;;;;;;;;;63.75;49.50;;;;;10.08;64.65;101570.75;146609;665;46010;-67
2023/01/15 08:39:31;;;;;;;;;73.00;55.25;;;;;10.16;64.35;101564.41;146611;564;46033;-69
2023/01/15 08:42:39;;;;;;;;;;;;;;;;;;;;;
2023/01/15 08:45:41;;;;;;;;;64.75;49.75;;;;;10.34;64.65;101564.75;146613;565;46015;-70
2023/01/15 08:48:40;;;;;;;;;57.50;44.50;;;;;10.47;64.90;101558.69;146619;581;46012;-69
2023/01/15 08:51:32;;;;;;;;;65.75;49.50;;;;;10.58;63.72;101570.62;146616;631;46012;-68
2023/01/15 08:54:34;;;;;;;;;76.00;60.75;;;;;10.65;63.89;101553.75;146615;588;46010;-69
2023/01/15 08:57:29;;;;;;;;;58.00;45.75;;;;;10.73;62.96;101554.25;146617;612;46016;-69
2023/01/15 09:00:24;;;;;;;;;57.50;44.25;;;;;10.69;61.87;101537.59;146619;628;46020;-69
2023/01/15 09:03:22;;;;;;;;;53.50;42.00;;;;;10.69;62.25;101544.50;146617;604;46916;-69
2023/01/15 09:06:19;;;;;;;;;48.50;38.75;;;;;10.68;62.22;101550.47;146620;633;46020;-70
2023/01/15 09:09:22;;;;;;;;;46.50;35.25;;;;;10.72;62.26;101547.28;146612;591;47014;-68
2023/01/15 09:12:26;;;;;;;;;49.50;39.00;;;;;10.78;61.54;101543.38;146622;563;46010;-69
2023/01/15 09:15:32;;;;;;;;;54.75;43.00;;;;;10.84;61.36;101545.44;146617;567;46015;-68
2023/01/15 09:18:42;;;;;;;;;56.75;44.50;;;;;10.85;60.70;101544.66;146617;565;46021;-69
2023/01/15 09:21:40;;;;;;;;;40.50;32.25;;;;;10.82;60.63;101534.97;146616;707;46916;-68
2023/01/15 09:24:38;;;;;;;;;40.75;32.75;;;;;10.81;60.99;101542.66;146613;621;46021;-68
2023/01/15 09:27:39;;;;;;;;;45.50;36.25;;;;;10.78;61.58;101542.50;146614;667;46016;-69
2023/01/15 09:30:33;;;;;;;;;48.25;38.75;;;;;10.80;61.49;101533.97;146622;623;46010;-69
2023/01/15 09:33:31;;;;;;;;;60.75;43.25;;;;;10.87;61.56;101537.84;146615;581;46033;-69
2023/01/15 09:36:51;;;;;;;;;52.25;41.50;;;;;10.91;61.64;101526.88;146619;612;46020;-68
2023/01/15 09:39:49;;;;;;;;;58.75;46.75;;;;;11.00;60.85;101524.87;146617;582;46014;-67
2023/01/15 09:43:19;;;;;;;;;45.00;34.50;;;;;11.05;60.78;101523.44;146619;569;46012;-70
2023/01/15 09:46:24;;;;;;;;;58.50;43.00;;;;;11.08;60.23;101522.72;146610;564;46914;-69
2023/01/15 09:49:53;;;;;;;;;843.20;609.40;;;;;11.12;62.01;101529.94;146604;575;46020;-72
2023/01/15 09:53:34;;;;;;;;;;;;;;;;;;;;;
2023/01/15 09:56:43;;;;;;;;;;;;;;;;;;;;;
2023/01/15 09:59:47;;;;;;;;;50.25;40.50;;;;;11.22;60.44;101503.72;146611;564;46034;-71
2023/01/15 10:03:11;;;;;;;;;54.75;43.25;;;;;11.23;60.66;101502.00;146614;582;46010;-70
2023/01/15 10:06:19;;;;;;;;;51.00;39.50;;;;;11.24;60.41;101501.19;146608;610;47012;-70
2023/01/15 10:09:38;;;;;;;;;48.75;38.75;;;;;11.25;60.99;101495.22;146610;581;46010;-70
2023/01/15 10:12:49;;;;;;;;;;;;;;;;;;;;;
2023/01/15 10:15:59;;;;;;;;;54.25;44.25;;;;;11.20;60.09;101494.94;146612;599;46025;-70
2023/01/15 10:19:01;;;;;;;;;60.00;45.00;;;;;11.09;60.69;101478.72;146608;589;46012;-70
2023/01/15 10:22:18;;;;;;;;;;;;;;;;;;;;;
2023/01/15 10:25:35;;;;;;;;;65.25;47.75;;;;;11.07;61.14;101489.81;146608;581;46016;-69
2023/01/15 10:28:55;;;;;;;;;75.25;61.50;;;;;11.10;61.43;101484.81;146606;647;46010;-68
2023/01/15 10:32:33;;;;;;;;;48.25;38.50;;;;;8.37;60.99;100998.88;146607;582;46012;-70
2023/01/15 10:36:02;;;;;;;;;56.50;45.00;;;;;11.16;60.81;101460.94;146609;577;46020;-70
2023/01/15 10:39:36;;;;;;;;;68.25;51.00;;;;;11.19;61.30;101468.91;146610;597;46032;-69
2023/01/15 10:43:08;;;;;;;;;36.25;30.00;;;;;7.52;60.65;100821.25;146611;572;46012;-70
2023/01/15 10:46:37;;;;;;;;;146.25;123.75;;;;;11.23;62.63;101455.28;146620;578;47014;-66
2023/01/15 10:49:54;;;;;;;;;51.50;41.50;;;;;11.36;61.47;101449.12;146624;573;46020;-68
2023/01/15 10:53:12;;;;;;;;;49.25;38.75;;;;;11.45;61.25;101441.88;146614;680;46017;-68
2023/01/15 10:56:51;;;;;;;;;56.50;45.00;;;;;8.66;61.37;100938.75;146617;602;45033;-66
2023/01/15 11:00:15;;;;;;;;;53.50;42.75;;;;;9.14;60.87;100998.56;146615;737;46013;-66
2023/01/15 11:03:17;;;;;;;;;44.50;34.50;;;;;11.61;60.71;101428.09;146615;587;46010;-68
2023/01/15 11:06:17;;;;;;;;;46.25;35.50;;;;;11.60;60.47;101426.31;146615;571;46017;-69
2023/01/15 11:09:45;;;;;;;;;56.25;45.25;;;;;8.86;60.69;100952.91;146619;571;46020;-69
2023/01/15 11:22:47;;;;;;;;;50.00;41.00;;;;;11.51;61.22;101411.06;146622;575;46010;-69
2023/01/15 11:26:07;;;;;;;;;49.00;37.00;;;;;11.53;60.97;101414.66;146616;563;46016;-69
2023/01/15 11:29:01;;;;;;;;;57.25;43.25;;;;;11.51;60.61;101411.06;146620;643;46030;-68
2023/01/15 11:32:01;;;;;;;;;46.75;38.00;;;;;11.46;59.97;101400.41;146612;606;46918;-69
2023/01/15 11:35:02;;;;;;;;;49.75;39.50;;;;;11.43;60.78;101401.94;146613;573;47010;-68
2023/01/15 11:38:21;;;;;;;;;51.50;39.50;;;;;8.66;60.61;100930.06;146615;575;46017;-69
2023/01/15 11:52:06;;;;;;;;;46.25;37.00;;;;;11.35;60.80;101398.91;146609;574;46012;-69
2023/01/15 11:55:01;;;;;;;;;47.75;37.25;;;;;11.40;60.01;101396.56;146608;688;46911;-69
2023/01/15 11:57:59;;;;;;;;;50.75;39.00;;;;;11.40;60.33;101386.16;146609;808;46016;-69
2023/01/15 12:01:11;;;;;;;;;50.75;39.00;;;;;11.45;60.26;101383.03;146612;610;46027;-69
2023/01/15 12:04:46;;;;;;;;;48.75;37.25;;;;;8.74;60.55;100890.97;146610;619;46012;-69
2023/01/15 12:07:46;;;;;;;;;33.50;29.50;;;;;11.54;60.42;101367.09;146605;611;45915;-70
2023/01/15 12:11:16;;;;;;;;;43.50;34.50;;;;;11.57;60.88;101368.16;146608;579;46016;-70
2023/01/15 12:14:55;;;;;;;;;38.25;32.25;;;;;11.57;61.43;101365.56;146613;602;46021;-69
2023/01/15 12:18:44;;;;;;;;;;;;;;;;;;;;;
2023/01/15 12:22:17;;;;;;;;;45.25;35.25;;;;;8.88;62.19;100898.66;146610;569;46021;-69
2023/01/15 12:25:42;;;;;;;;;41.25;34.25;;;;;8.81;62.28;100897.41;146608;610;46916;-69
2023/01/15 12:29:34;;;;;;;;;40.25;33.75;;;;;11.44;62.81;101362.19;146612;606;46020;-69
2023/01/15 12:32:31;;;;;;;;;49.25;39.00;;;;;11.40;64.99;101365.41;146609;579;46012;-68
2023/01/15 12:36:09;;;;;;;;;56.75;43.50;;;;;8.63;64.61;100885.94;146613;600;46020;-69
2023/01/15 12:39:08;;;;;;;;;54.75;41.50;;;;;11.35;65.60;101365.16;146606;571;47012;-69
2023/01/15 12:45:42;;;;;;;;;41.50;34.00;;;;;11.37;66.26;101357.44;146610;569;46017;-68
2023/01/15 12:49:04;;;;;;;;;44.75;34.75;;;;;11.34;66.07;101352.97;146613;698;46020;-68
2023/01/15 12:52:27;;;;;;;;;45.25;35.75;;;;;11.34;65.53;101352.97;146607;564;46017;-69
2023/01/15 12:55:49;;;;;;;;;45.00;36.50;;;;;11.36;65.52;101359.13;146612;586;46020;-69
2023/01/15 12:59:17;;;;;;;;;38.25;32.00;;;;;8.75;65.32;100897.03;146608;586;46012;-68
2023/01/15 13:02:57;;;;;;;;;41.50;33.00;;;;;8.47;65.21;100833.34;146612;598;46012;-70
2023/01/15 13:06:13;;;;;;;;;45.75;36.25;;;;;11.46;65.66;101361.44;146613;569;45018;-69
2023/01/15 13:09:29;;;;;;;;;36.50;30.50;;;;;11.43;65.33;101356.13;146608;586;46010;-69
2023/01/15 13:12:31;;;;;;;;;45.75;34.50;;;;;11.45;65.97;101361.38;146610;693;46012;-69
2023/01/15 13:15:42;;;;;;;;;51.50;40.75;;;;;11.48;66.25;101361.56;146606;586;46021;-69
2023/01/15 13:19:03;;;;;;;;;58.75;46.25;;;;;11.49;65.69;101365.94;146609;564;46016;-69
2023/01/15 13:22:11;;;;;;;;;40.75;32.50;;;;;11.46;65.63;101361.44;146615;609;46021;-69
2023/01/15 13:25:43;;;;;;;;;49.75;39.00;;;;;11.45;65.34;101374.38;146609;569;46016;-69
2023/01/15 13:29:16;;;;;;;;;44.75;34.50;;;;;9.93;65.13;101108.63;146615;617;46011;-69
2023/01/15 13:32:27;;;;;;;;;59.25;47.50;;;;;11.45;65.79;101375.25;146609;611;46012;-70
2023/01/15 13:35:44;;;;;;;;;47.75;38.75;;;;;8.74;65.45;100922.00;146615;741;46020;-70
2023/01/15 13:38:50;;;;;;;;;44.50;32.25;;;;;11.40;65.64;101371.50;146612;630;46012;-70
2023/01/15 13:42:34;;;;;;;;;55.50;44.25;;;;;8.66;65.00;100889.62;146614;570;46028;-69
2023/01/15 13:45:44;;;;;;;;;51.50;40.00;;;;;11.42;65.14;101376.78;146631;624;46012;-69
2023/01/15 13:49:00;;;;;;;;;52.50;40.50;;;;;11.43;65.44;101381.16;146634;599;45010;-68
2023/01/15 13:52:05;;;;;;;;;36.00;29.50;;;;;11.42;66.19;101377.66;146630;691;46014;-70
2023/01/15 13:55:31;;;;;;;;;45.75;36.00;;;;;11.42;66.11;101375.06;146633;572;46012;-69
2023/01/15 13:58:52;;;;;;;;;;;;;;;;;;;;;
2023/01/15 14:01:50;;;;;;;;;44.75;35.50;;;;;11.50;66.28;101368.63;146634;565;45010;-69
2023/01/15 14:04:42;;;;;;;;;43.50;34.25;;;;;11.56;65.92;101375.87;146635;578;46012;-69
2023/01/15 14:07:46;;;;;;;;;43.50;34.25;;;;;11.58;65.64;101374.25;146635;608;45010;-70
2023/01/15 14:10:48;;;;;;;;;38.75;33.00;;;;;11.59;65.73;101372.53;146634;619;45016;-70
2023/01/15 14:14:28;;;;;;;;;38.50;32.75;;;;;11.60;65.06;101372.66;146633;662;45028;-70
2023/01/15 14:17:59;;;;;;;;;40.50;33.00;;;;;11.60;64.89;101369.16;146634;701;45014;-69
2023/01/15 14:21:26;;;;;;;;;45.50;34.50;;;;;8.82;64.68;100882.81;146635;564;45021;-69
2023/01/15 14:25:05;;;;;;;;;46.00;37.25;;;;;11.55;65.54;101356.78;146630;594;46012;-69
2023/01/15 14:28:40;;;;;;;;;44.75;35.00;;;;;11.55;64.53;101358.50;146636;569;46011;-69
2023/01/15 14:32:25;;;;;;;;;51.00;42.25;;;;;11.49;65.62;101372.00;146632;576;45012;-69
2023/01/15 14:35:27;;;;;;;;;49.00;39.50;;;;;11.44;66.03;101370.00;146636;723;45010;-70
2023/01/15 14:38:32;;;;;;;;;61.75;46.25;;;;;8.59;66.78;100890.03;146635;577;46012;-69
2023/01/15 14:45:56;;;;;;;;;44.00;36.25;;;;;8.59;66.66;100904.66;146631;574;46016;-70
2023/01/15 14:48:57;;;;;;;;;55.75;43.00;;;;;11.29;68.17;101377.78;146636;601;46012;-69
2023/01/15 14:52:19;;;;;;;;;53.50;43.75;;;;;11.24;68.23;101369.69;146633;604;45917;-68
2023/01/15 14:55:16;;;;;;;;;46.50;37.75;;;;;11.21;68.91;101369.50;146628;607;45020;-69
2023/01/15 14:58:50;;;;;;;;;;;;;;;;;;;;;
2023/01/15 15:02:05;;;;;;;;;51.25;40.00;;;;;11.16;68.00;101362.28;146636;720;45010;-70
2023/01/15 15:05:20;;;;;;;;;52.75;42.75;;;;;8.58;67.44;100908.06;146636;570;45012;-68
2023/01/15 15:08:21;;;;;;;;;47.00;37.75;;;;;11.16;67.97;101362.28;146636;645;45020;-69
2023/01/15 15:14:56;;;;;;;;;64.25;50.75;;;;;11.14;67.12;101357.00;146635;585;46012;-70
2023/01/15 15:18:53;;;;;;;;;59.75;46.50;;;;;9.70;66.57;101115.00;146634;604;45016;-69
2023/01/15 15:22:08;;;;;;;;;49.50;41.50;;;;;11.08;67.23;101362.72;146630;723;45022;-69
2023/01/15 15:25:47;;;;;;;;;;;;;;;;;;;;;
2023/01/15 15:29:12;;;;;;;;;58.75;46.50;;;;;11.07;66.53;101363.53;146629;585;46010;-68
2023/01/15 15:32:39;;;;;;;;;57.00;46.25;;;;;11.08;66.01;101365.31;146635;598;45016;-68
2023/01/15 15:36:01;;;;;;;;;52.25;42.00;;;;;11.07;66.38;101355.75;146637;681;45010;-67
2023/01/15 15:39:40;;;;;;;;;47.75;38.50;;;;;8.38;65.40;100887.03;146629;569;45914;-68
2023/01/15 15:49:54;;;;;;;;;42.75;33.25;;;;;11.02;66.45;101357.16;146613;592;46010;-69
2023/01/15 15:53:22;;;;;;;;;58.75;45.00;;;;;10.98;66.68;101352.59;146609;574;46016;-68
2023/01/15 15:56:16;;;;;;;;;53.25;41.00;;;;;10.92;67.14;101357.41;146608;565;47011;-69
2023/01/15 15:59:10;;;;;;;;;57.00;44.00;;;;;10.88;67.36;101359.75;146606;607;46014;-67
2023/01/15 16:02:32;;;;;;;;;49.75;39.50;;;;;10.82;66.98;101362.87;146607;627;46012;-67
2023/01/15 16:05:33;;;;;;;;;60.25;47.25;;;;;10.76;67.54;101376.34;146610;592;46017;-67